Wetterdaten: Woche 13.04.09 - 19.04.09 (KW16)
Datum Zeit Temperatur Luftfeuchte Luftdruck Niederschlag Wind Richtung Sonnenschein Solar Taupunkt Windchill Windben
13.04.2009 00:00 9.8 C 82 % 1007.9 hPa 0.0 l/m 1.6 km/h (1 Bft) O 0.00 h 0 W/m 7.0 C 9.8 C 3.2 km/h (1 Bft)
13.04.2009 01:00 8.9 C 85 % 1007.8 hPa 0.0 l/m 1.2 km/h (1 Bft) O 0.00 h 0 W/m 6.6 C 8.9 C 2.4 km/h (1 Bft)
13.04.2009 02:00 8.3 C 88 % 1007.5 hPa 0.0 l/m 0.9 km/h (0 Bft) O 0.00 h 0 W/m 6.5 C 8.3 C 2.1 km/h (1 Bft)
13.04.2009 03:00 7.6 C 90 % 1007.3 hPa 0.0 l/m 1.8 km/h (1 Bft) O 0.00 h 0 W/m 6.1 C 7.5 C 2.7 km/h (1 Bft)
13.04.2009 04:00 6.8 C 91 % 1007.4 hPa 0.0 l/m 0.4 km/h (0 Bft) O 0.00 h 0 W/m 5.4 C 6.8 C 0.8 km/h (0 Bft)
13.04.2009 05:00 6.0 C 93 % 1007.4 hPa 0.0 l/m 0.1 km/h (0 Bft) O 0.00 h 0 W/m 4.9 C 6.0 C 0.2 km/h (0 Bft)
13.04.2009 06:00 5.5 C 94 % 1007.8 hPa 0.0 l/m 0.0 km/h (0 Bft) N 0.00 h 8 W/m 4.6 C 5.5 C 0.2 km/h (0 Bft)
13.04.2009 07:00 5.2 C 95 % 1008.1 hPa 0.0 l/m 0.0 km/h (0 Bft) O 0.00 h 39 W/m 4.5 C 5.2 C 0.3 km/h (0 Bft)
13.04.2009 08:00 6.9 C 97 % 1008.3 hPa 0.0 l/m 0.0 km/h (0 Bft) N 0.92 h 186 W/m 6.5 C 6.9 C 0.0 km/h (0 Bft)
13.04.2009 09:00 10.4 C 87 % 1008.0 hPa 0.0 l/m 0.2 km/h (0 Bft) O 1.00 h 349 W/m 8.4 C 10.4 C 1.1 km/h (1 Bft)
13.04.2009 10:00 13.4 C 75 % 1007.8 hPa 0.0 l/m 0.6 km/h (0 Bft) N 1.00 h 518 W/m 8.9 C 13.4 C 2.2 km/h (1 Bft)
13.04.2009 11:00 15.7 C 69 % 1007.2 hPa 0.0 l/m 0.8 km/h (0 Bft) O-SO 0.83 h 588 W/m 10.0 C 15.7 C 2.4 km/h (1 Bft)
13.04.2009 12:00 18.4 C 56 % 1006.6 hPa 0.0 l/m 3.0 km/h (1 Bft) NW 0.92 h 701 W/m 9.5 C 18.4 C 5.0 km/h (1 Bft)
13.04.2009 13:00 20.5 C 45 % 1006.0 hPa 0.0 l/m 3.6 km/h (1 Bft) N-NW 1.00 h 766 W/m 8.0 C 20.5 C 6.1 km/h (2 Bft)
13.04.2009 14:00 22.6 C 40 % 1005.3 hPa 0.0 l/m 6.4 km/h (2 Bft) N-NW 0.93 h 780 W/m 8.4 C 22.6 C 9.5 km/h (2 Bft)
13.04.2009 15:00 22.8 C 33 % 1004.9 hPa 0.0 l/m 5.3 km/h (1 Bft) W-NW 0.60 h 538 W/m 5.8 C 22.8 C 8.6 km/h (2 Bft)
13.04.2009 16:00 22.2 C 32 % 1004.6 hPa 0.0 l/m 4.3 km/h (1 Bft) SO 0.75 h 472 W/m 4.8 C 22.2 C 7.2 km/h (2 Bft)
13.04.2009 17:00 22.1 C 33 % 1004.4 hPa 0.0 l/m 2.0 km/h (1 Bft) O-SO 0.68 h 328 W/m 5.2 C 22.1 C 4.2 km/h (1 Bft)
13.04.2009 18:00 22.2 C 35 % 1004.4 hPa 0.0 l/m 3.2 km/h (1 Bft) W-SW 0.73 h 213 W/m 6.0 C 22.2 C 5.4 km/h (1 Bft)
13.04.2009 19:00 19.6 C 42 % 1005.0 hPa 0.0 l/m 2.8 km/h (1 Bft) W-NW 0.00 h 24 W/m 6.3 C 19.6 C 5.3 km/h (1 Bft)
13.04.2009 20:00 17.1 C 53 % 1005.4 hPa 0.0 l/m 4.6 km/h (1 Bft) N-NW 0.00 h 5 W/m 7.3 C 17.1 C 7.2 km/h (2 Bft)
13.04.2009 21:00 15.5 C 59 % 1006.0 hPa 0.0 l/m 1.5 km/h (1 Bft) N-NO 0.00 h 0 W/m 7.4 C 15.5 C 2.9 km/h (1 Bft)
13.04.2009 22:00 13.5 C 65 % 1006.1 hPa 0.0 l/m 2.4 km/h (1 Bft) O-SO 0.00 h 0 W/m 7.1 C 13.5 C 3.9 km/h (1 Bft)
13.04.2009 23:00 12.2 C 72 % 1006.4 hPa 0.0 l/m 0.8 km/h (0 Bft) O 0.00 h 0 W/m 7.3 C 12.2 C 2.6 km/h (1 Bft)
14.04.2009 00:00 11.4 C 77 % 1006.4 hPa 0.0 l/m 1.4 km/h (1 Bft) O-SO 0.00 h 0 W/m 7.5 C 11.4 C 2.6 km/h (1 Bft)
14.04.2009 01:00 10.2 C 82 % 1006.5 hPa 0.0 l/m 2.8 km/h (1 Bft) O 0.00 h 0 W/m 7.3 C 10.2 C 4.1 km/h (1 Bft)
14.04.2009 02:00 10.0 C 85 % 1006.5 hPa 0.0 l/m 2.9 km/h (1 Bft) O 0.00 h 0 W/m 7.6 C 10.0 C 4.3 km/h (1 Bft)
14.04.2009 03:00 9.2 C 88 % 1006.7 hPa 0.0 l/m 2.8 km/h (1 Bft) O 0.00 h 0 W/m 7.2 C 9.1 C 4.6 km/h (1 Bft)
14.04.2009 04:00 8.5 C 90 % 1006.9 hPa 0.0 l/m 0.8 km/h (0 Bft) O 0.00 h 0 W/m 6.9 C 8.5 C 1.6 km/h (1 Bft)
14.04.2009 05:00 7.2 C 91 % 1007.1 hPa 0.0 l/m 0.4 km/h (0 Bft) O 0.00 h 0 W/m 5.9 C 7.2 C 1.0 km/h (0 Bft)
14.04.2009 06:00 6.8 C 94 % 1007.3 hPa 0.0 l/m 0.3 km/h (0 Bft) O 0.02 h 9 W/m 5.8 C 6.8 C 0.8 km/h (0 Bft)
14.04.2009 07:00 6.6 C 95 % 1008.0 hPa 0.0 l/m 0.6 km/h (0 Bft) O 0.00 h 40 W/m 5.8 C 6.6 C 1.0 km/h (0 Bft)
14.04.2009 08:00 7.4 C 96 % 1008.5 hPa 0.0 l/m 0.0 km/h (0 Bft) N 0.00 h 127 W/m 6.7 C 7.4 C 0.1 km/h (0 Bft)
14.04.2009 09:00 9.5 C 95 % 1008.5 hPa 0.0 l/m 0.3 km/h (0 Bft) O 0.30 h 236 W/m 8.7 C 9.5 C 1.3 km/h (1 Bft)
14.04.2009 10:00 13.3 C 80 % 1008.3 hPa 0.0 l/m 0.9 km/h (0 Bft) SO 1.00 h 482 W/m 10.0 C 13.3 C 2.4 km/h (1 Bft)
14.04.2009 11:00 15.9 C 73 % 1007.8 hPa 0.0 l/m 1.1 km/h (1 Bft) SO 1.00 h 625 W/m 11.0 C 15.9 C 2.8 km/h (1 Bft)
14.04.2009 12:00 18.5 C 62 % 1007.1 hPa 0.0 l/m 1.4 km/h (1 Bft) NW 1.00 h 725 W/m 11.1 C 18.5 C 3.2 km/h (1 Bft)
14.04.2009 13:00 20.4 C 51 % 1006.5 hPa 0.0 l/m 1.7 km/h (1 Bft) SO 1.00 h 768 W/m 10.0 C 20.4 C 3.7 km/h (1 Bft)
14.04.2009 14:00 21.8 C 40 % 1006.0 hPa 0.0 l/m 4.3 km/h (1 Bft) SO 0.82 h 664 W/m 7.5 C 21.8 C 7.9 km/h (2 Bft)
14.04.2009 15:00 22.1 C 34 % 1005.8 hPa 0.0 l/m 4.0 km/h (1 Bft) O-SO 0.87 h 614 W/m 5.6 C 22.1 C 7.6 km/h (2 Bft)
14.04.2009 16:00 22.4 C 32 % 1005.5 hPa 0.0 l/m 4.2 km/h (1 Bft) O-SO 1.00 h 549 W/m 4.8 C 22.4 C 7.9 km/h (2 Bft)
14.04.2009 17:00 22.2 C 31 % 1005.5 hPa 0.0 l/m 4.3 km/h (1 Bft) O-SO 1.00 h 395 W/m 4.4 C 22.2 C 8.2 km/h (2 Bft)
14.04.2009 18:00 21.5 C 32 % 1005.6 hPa 0.0 l/m 5.1 km/h (1 Bft) O-SO 1.00 h 251 W/m 4.3 C 21.5 C 7.9 km/h (2 Bft)
14.04.2009 19:00 20.9 C 32 % 1005.6 hPa 0.0 l/m 1.8 km/h (1 Bft) NO 0.67 h 81 W/m 3.4 C 20.9 C 4.7 km/h (1 Bft)
14.04.2009 20:00 18.1 C 42 % 1006.1 hPa 0.0 l/m 1.9 km/h (1 Bft) O 0.02 h 8 W/m 5.0 C 18.1 C 3.9 km/h (1 Bft)
14.04.2009 21:00 15.0 C 53 % 1006.6 hPa 0.0 l/m 1.3 km/h (1 Bft) O-SO 0.00 h 0 W/m 5.4 C 15.0 C 2.4 km/h (1 Bft)
14.04.2009 22:00 13.0 C 61 % 1007.0 hPa 0.0 l/m 1.3 km/h (1 Bft) O-SO 0.00 h 0 W/m 5.6 C 13.0 C 2.7 km/h (1 Bft)
14.04.2009 23:00 12.1 C 64 % 1007.1 hPa 0.0 l/m 3.2 km/h (1 Bft) O-SO 0.00 h 0 W/m 5.4 C 12.1 C 4.8 km/h (1 Bft)
15.04.2009 00:00 10.6 C 71 % 1007.0 hPa 0.0 l/m 1.4 km/h (1 Bft) O-SO 0.00 h 0 W/m 5.4 C 10.6 C 2.9 km/h (1 Bft)
15.04.2009 01:00 9.7 C 74 % 1007.2 hPa 0.0 l/m 2.9 km/h (1 Bft) O 0.00 h 0 W/m 5.2 C 9.5 C 4.8 km/h (1 Bft)
15.04.2009 02:00 8.9 C 77 % 1007.4 hPa 0.0 l/m 1.0 km/h (0 Bft) O-SO 0.00 h 0 W/m 5.1 C 8.9 C 2.2 km/h (1 Bft)
15.04.2009 03:00 7.8 C 82 % 1007.4 hPa 0.0 l/m 0.7 km/h (0 Bft) O-SO 0.00 h 0 W/m 4.9 C 7.8 C 1.6 km/h (1 Bft)
15.04.2009 04:00 7.3 C 83 % 1007.6 hPa 0.0 l/m 2.2 km/h (1 Bft) O-SO 0.00 h 0 W/m 4.6 C 7.2 C 3.3 km/h (1 Bft)
15.04.2009 05:00 6.3 C 86 % 1007.8 hPa 0.0 l/m 1.2 km/h (1 Bft) O-SO 0.00 h 0 W/m 4.2 C 6.3 C 2.1 km/h (1 Bft)
15.04.2009 06:00 5.7 C 88 % 1008.1 hPa 0.0 l/m 0.6 km/h (0 Bft) O-SO 0.03 h 10 W/m 3.9 C 5.7 C 1.2 km/h (1 Bft)
15.04.2009 07:00 5.6 C 90 % 1008.7 hPa 0.0 l/m 0.3 km/h (0 Bft) O-SO 0.00 h 43 W/m 4.0 C 5.6 C 0.6 km/h (0 Bft)
15.04.2009 08:00 7.6 C 89 % 1009.1 hPa 0.0 l/m 0.1 km/h (0 Bft) O-SO 0.98 h 197 W/m 5.8 C 7.6 C 0.7 km/h (0 Bft)
15.04.2009 09:00 12.1 C 73 % 1008.8 hPa 0.0 l/m 0.7 km/h (0 Bft) O-SO 1.00 h 368 W/m 7.4 C 12.1 C 2.2 km/h (1 Bft)
15.04.2009 10:00 14.7 C 63 % 1008.4 hPa 0.0 l/m 1.4 km/h (1 Bft) W-NW 1.00 h 527 W/m 7.9 C 14.7 C 3.2 km/h (1 Bft)
15.04.2009 11:00 17.2 C 54 % 1008.0 hPa 0.0 l/m 2.5 km/h (1 Bft) W-NW 1.00 h 653 W/m 7.9 C 17.2 C 4.6 km/h (1 Bft)
15.04.2009 12:00 19.4 C 47 % 1007.1 hPa 0.0 l/m 3.4 km/h (1 Bft) NW 1.00 h 741 W/m 7.8 C 19.4 C 5.7 km/h (1 Bft)
15.04.2009 13:00 21.6 C 41 % 1006.4 hPa 0.0 l/m 3.4 km/h (1 Bft) N-NW 1.00 h 785 W/m 7.8 C 21.6 C 5.8 km/h (2 Bft)
15.04.2009 14:00 23.0 C 33 % 1005.9 hPa 0.0 l/m 4.0 km/h (1 Bft) W 1.00 h 748 W/m 5.9 C 23.0 C 6.5 km/h (2 Bft)
15.04.2009 15:00 23.3 C 30 % 1005.5 hPa 0.0 l/m 3.5 km/h (1 Bft) SO 0.95 h 597 W/m 4.7 C 23.3 C 6.2 km/h (2 Bft)
15.04.2009 16:00 23.3 C 28 % 1004.9 hPa 0.0 l/m 4.4 km/h (1 Bft) SO 0.90 h 466 W/m 3.5 C 23.3 C 7.9 km/h (2 Bft)
15.04.2009 17:00 22.9 C 30 % 1004.7 hPa 0.0 l/m 5.2 km/h (1 Bft) SO 0.92 h 352 W/m 4.1 C 22.9 C 8.4 km/h (2 Bft)
15.04.2009 18:00 21.8 C 34 % 1004.9 hPa 0.0 l/m 4.0 km/h (1 Bft) SO 0.43 h 151 W/m 5.2 C 21.8 C 5.7 km/h (1 Bft)
15.04.2009 19:00 20.6 C 37 % 1005.0 hPa 0.0 l/m 1.9 km/h (1 Bft) SO 0.32 h 62 W/m 5.3 C 20.6 C 3.1 km/h (1 Bft)
15.04.2009 20:00 18.7 C 44 % 1005.0 hPa 0.0 l/m 3.0 km/h (1 Bft) SO 0.03 h 9 W/m 6.0 C 18.7 C 4.4 km/h (1 Bft)
15.04.2009 21:00 16.1 C 52 % 1005.5 hPa 0.0 l/m 3.1 km/h (1 Bft) O-SO 0.00 h 0 W/m 6.2 C 16.1 C 4.8 km/h (1 Bft)
15.04.2009 22:00 15.0 C 56 % 1005.6 hPa 0.0 l/m 0.2 km/h (0 Bft) SO 0.00 h 0 W/m 6.2 C 15.0 C 1.1 km/h (1 Bft)
15.04.2009 23:00 13.7 C 60 % 1005.8 hPa 0.0 l/m 1.0 km/h (0 Bft) O-SO 0.00 h 0 W/m 6.2 C 13.7 C 1.7 km/h (1 Bft)
16.04.2009 00:00 12.1 C 65 % 1006.1 hPa 0.0 l/m 0.8 km/h (0 Bft) O-SO 0.00 h 0 W/m 5.8 C 12.1 C 1.7 km/h (1 Bft)
16.04.2009 01:00 10.9 C 72 % 1006.7 hPa 0.0 l/m 4.1 km/h (1 Bft) O-SO 0.00 h 0 W/m 6.1 C 10.9 C 6.9 km/h (2 Bft)
16.04.2009 02:00 12.7 C 70 % 1006.4 hPa 0.0 l/m 2.9 km/h (1 Bft) N 0.00 h 0 W/m 7.4 C 12.7 C 6.2 km/h (2 Bft)
16.04.2009 03:00 13.2 C 68 % 1006.0 hPa 0.0 l/m 3.9 km/h (1 Bft) W-NW 0.00 h 0 W/m 7.4 C 13.2 C 7.4 km/h (2 Bft)
16.04.2009 04:00 13.0 C 68 % 1006.6 hPa 0.0 l/m 2.6 km/h (1 Bft) W-NW 0.00 h 0 W/m 7.3 C 13.0 C 4.8 km/h (1 Bft)
16.04.2009 05:00 12.2 C 71 % 1006.2 hPa 0.0 l/m 1.0 km/h (0 Bft) N 0.00 h 0 W/m 7.2 C 12.2 C 2.6 km/h (1 Bft)
16.04.2009 06:00 11.5 C 75 % 1006.3 hPa 0.0 l/m 1.1 km/h (1 Bft) O 0.00 h 9 W/m 7.2 C 11.5 C 2.6 km/h (1 Bft)
16.04.2009 07:00 11.0 C 78 % 1006.3 hPa 0.0 l/m 0.4 km/h (0 Bft) O 0.00 h 32 W/m 7.2 C 11.0 C 1.0 km/h (0 Bft)
16.04.2009 08:00 10.5 C 81 % 1006.4 hPa 0.0 l/m 0.7 km/h (0 Bft) O-SO 0.00 h 99 W/m 7.5 C 10.5 C 1.8 km/h (1 Bft)
16.04.2009 09:00 11.4 C 81 % 1006.0 hPa 0.0 l/m 0.1 km/h (0 Bft) O-SO 0.00 h 139 W/m 8.2 C 11.4 C 0.4 km/h (0 Bft)
16.04.2009 10:00 12.7 C 77 % 1005.9 hPa 0.0 l/m 1.7 km/h (1 Bft) N 0.00 h 220 W/m 8.8 C 12.7 C 3.6 km/h (1 Bft)
16.04.2009 11:00 14.0 C 72 % 1005.5 hPa 0.0 l/m 2.1 km/h (1 Bft) N 0.00 h 245 W/m 9.0 C 14.0 C 4.1 km/h (1 Bft)
16.04.2009 12:00 15.3 C 66 % 1005.1 hPa 0.0 l/m 2.5 km/h (1 Bft) NW 0.23 h 372 W/m 9.0 C 15.3 C 4.6 km/h (1 Bft)
16.04.2009 13:00 17.2 C 57 % 1004.3 hPa 0.0 l/m 5.4 km/h (1 Bft) N-NW 0.90 h 751 W/m 8.6 C 17.2 C 8.7 km/h (2 Bft)
16.04.2009 14:00 17.9 C 54 % 1004.3 hPa 0.0 l/m 7.6 km/h (2 Bft) W 0.47 h 444 W/m 8.4 C 17.9 C 12.2 km/h (2 Bft)
16.04.2009 15:00 11.8 C 70 % 1006.8 hPa 1.0 l/m 17.4 km/h (3 Bft) W 0.00 h 49 W/m 6.3 C 11.0 C 27.9 km/h (4 Bft)
16.04.2009 16:00 8.4 C 89 % 1008.6 hPa 1.2 l/m 7.4 km/h (2 Bft) W-NW 0.00 h 72 W/m 6.7 C 7.3 C 12.1 km/h (2 Bft)
16.04.2009 17:00 8.6 C 91 % 1008.5 hPa 0.0 l/m 3.6 km/h (1 Bft) S-SW 0.00 h 63 W/m 7.3 C 8.5 C 6.1 km/h (2 Bft)
16.04.2009 18:00 8.8 C 92 % 1008.8 hPa 0.4 l/m 1.3 km/h (1 Bft) SW 0.00 h 36 W/m 7.5 C 8.7 C 2.8 km/h (1 Bft)
16.04.2009 19:00 8.7 C 93 % 1008.3 hPa 0.2 l/m 0.2 km/h (0 Bft) O-SO 0.00 h 28 W/m 7.6 C 8.7 C 0.6 km/h (0 Bft)
16.04.2009 20:00 8.6 C 93 % 1008.4 hPa 0.0 l/m 0.1 km/h (0 Bft) O-SO 0.00 h 5 W/m 7.5 C 8.6 C 0.4 km/h (0 Bft)
16.04.2009 21:00 8.1 C 93 % 1008.4 hPa 0.0 l/m 0.7 km/h (0 Bft) O-SO 0.00 h 0 W/m 7.1 C 8.1 C 1.2 km/h (1 Bft)
16.04.2009 22:00 8.1 C 94 % 1008.2 hPa 0.0 l/m 1.3 km/h (1 Bft) SO 0.00 h 0 W/m 7.2 C 8.1 C 2.4 km/h (1 Bft)
16.04.2009 23:00 8.2 C 94 % 1008.2 hPa 0.2 l/m 1.1 km/h (1 Bft) SO 0.00 h 0 W/m 7.3 C 8.2 C 2.6 km/h (1 Bft)
17.04.2009 00:00 8.2 C 94 % 1007.9 hPa 0.0 l/m 0.6 km/h (0 Bft) SO 0.00 h 0 W/m 7.3 C 8.2 C 2.0 km/h (1 Bft)
17.04.2009 01:00 8.2 C 95 % 1007.8 hPa 0.0 l/m 0.9 km/h (0 Bft) S-SO 0.00 h 0 W/m 7.4 C 8.2 C 2.3 km/h (1 Bft)
17.04.2009 02:00 8.0 C 95 % 1007.5 hPa 0.2 l/m 1.5 km/h (1 Bft) S 0.00 h 0 W/m 7.3 C 8.0 C 3.3 km/h (1 Bft)
17.04.2009 03:00 8.0 C 96 % 1008.1 hPa 0.0 l/m 0.0 km/h (0 Bft) N 0.00 h 0 W/m 7.4 C 8.0 C 0.4 km/h (0 Bft)
17.04.2009 04:00 7.8 C 96 % 1008.4 hPa 0.0 l/m 1.1 km/h (0 Bft) S 0.00 h 0 W/m 7.2 C 7.8 C 3.0 km/h (1 Bft)
17.04.2009 05:00 7.7 C 96 % 1008.6 hPa 0.2 l/m 1.6 km/h (1 Bft) S 0.00 h 0 W/m 7.1 C 7.6 C 3.3 km/h (1 Bft)
17.04.2009 06:00 7.4 C 96 % 1008.6 hPa 0.0 l/m 1.7 km/h (1 Bft) S 0.00 h 7 W/m 6.8 C 7.4 C 4.0 km/h (1 Bft)
17.04.2009 07:00 7.3 C 95 % 1009.1 hPa 0.0 l/m 1.6 km/h (1 Bft) W-SW 0.00 h 35 W/m 6.6 C 7.3 C 3.9 km/h (1 Bft)
17.04.2009 08:00 8.1 C 95 % 1009.3 hPa 0.0 l/m 2.5 km/h (1 Bft) SW 0.18 h 150 W/m 7.4 C 8.1 C 5.1 km/h (1 Bft)
17.04.2009 09:00 9.7 C 92 % 1009.7 hPa 0.0 l/m 2.2 km/h (1 Bft) SW 0.12 h 205 W/m 8.5 C 9.7 C 4.6 km/h (1 Bft)
17.04.2009 10:00 11.1 C 82 % 1009.8 hPa 0.0 l/m 5.4 km/h (1 Bft) SW 0.35 h 298 W/m 8.1 C 11.1 C 8.8 km/h (2 Bft)
17.04.2009 11:00 11.2 C 75 % 1009.8 hPa 0.0 l/m 9.9 km/h (2 Bft) W 0.00 h 246 W/m 6.9 C 11.2 C 15.4 km/h (3 Bft)
17.04.2009 12:00 11.9 C 69 % 1009.5 hPa 0.0 l/m 13.6 km/h (3 Bft) W 0.38 h 389 W/m 6.4 C 11.9 C 20.5 km/h (4 Bft)
17.04.2009 13:00 13.5 C 58 % 1009.2 hPa 0.0 l/m 16.3 km/h (3 Bft) W 0.62 h 590 W/m 5.3 C 13.5 C 25.0 km/h (4 Bft)
17.04.2009 14:00 13.0 C 58 % 1009.5 hPa 0.0 l/m 14.9 km/h (3 Bft) W 0.42 h 454 W/m 4.9 C 13.0 C 22.9 km/h (4 Bft)
17.04.2009 15:00 13.7 C 56 % 1009.3 hPa 0.0 l/m 11.6 km/h (2 Bft) W 0.55 h 504 W/m 4.9 C 13.7 C 18.0 km/h (3 Bft)
17.04.2009 16:00 16.1 C 48 % 1008.6 hPa 0.0 l/m 10.3 km/h (2 Bft) W 1.00 h 550 W/m 5.0 C 16.1 C 16.3 km/h (3 Bft)
17.04.2009 17:00 15.4 C 46 % 1008.7 hPa 0.0 l/m 15.7 km/h (3 Bft) W 0.87 h 430 W/m 3.9 C 15.4 C 23.2 km/h (4 Bft)
17.04.2009 18:00 14.1 C 52 % 1009.2 hPa 0.0 l/m 11.0 km/h (2 Bft) W 0.35 h 163 W/m 4.4 C 14.1 C 17.0 km/h (3 Bft)
17.04.2009 19:00 12.7 C 58 % 1009.8 hPa 0.0 l/m 10.8 km/h (2 Bft) W 0.00 h 54 W/m 4.6 C 12.7 C 16.7 km/h (3 Bft)
17.04.2009 20:00 11.4 C 63 % 1010.1 hPa 0.0 l/m 7.3 km/h (2 Bft) W-NW 0.02 h 9 W/m 4.7 C 11.4 C 11.4 km/h (2 Bft)
17.04.2009 21:00 10.4 C 69 % 1010.5 hPa 0.0 l/m 0.8 km/h (0 Bft) W-NW 0.00 h 0 W/m 5.0 C 10.4 C 1.8 km/h (1 Bft)
17.04.2009 22:00 9.8 C 75 % 1011.0 hPa 0.0 l/m 1.4 km/h (1 Bft) SO 0.00 h 0 W/m 5.6 C 9.7 C 3.1 km/h (1 Bft)
17.04.2009 23:00 9.6 C 74 % 1011.0 hPa 0.0 l/m 1.7 km/h (1 Bft) SO 0.00 h 0 W/m 5.3 C 9.6 C 3.3 km/h (1 Bft)
18.04.2009 00:00 9.0 C 74 % 1011.1 hPa 0.0 l/m 3.4 km/h (1 Bft) S-SO 0.00 h 0 W/m 4.6 C 8.8 C 5.5 km/h (1 Bft)
18.04.2009 01:00 8.3 C 79 % 1011.4 hPa 0.0 l/m 2.9 km/h (1 Bft) SO 0.00 h 0 W/m 4.9 C 8.2 C 4.6 km/h (1 Bft)
18.04.2009 02:00 7.5 C 82 % 1011.5 hPa 0.0 l/m 1.6 km/h (1 Bft) SO 0.00 h 0 W/m 4.7 C 7.5 C 2.7 km/h (1 Bft)
18.04.2009 03:00 6.6 C 85 % 1011.4 hPa 0.0 l/m 0.4 km/h (0 Bft) SO 0.00 h 0 W/m 4.3 C 6.6 C 1.0 km/h (0 Bft)
18.04.2009 04:00 6.0 C 88 % 1011.4 hPa 0.0 l/m 1.9 km/h (1 Bft) SO 0.00 h 0 W/m 4.2 C 6.0 C 3.3 km/h (1 Bft)
18.04.2009 05:00 5.9 C 89 % 1011.5 hPa 0.0 l/m 0.1 km/h (0 Bft) SO 0.00 h 0 W/m 4.2 C 5.9 C 0.2 km/h (0 Bft)
18.04.2009 06:00 5.5 C 90 % 1011.7 hPa 0.0 l/m 1.2 km/h (1 Bft) SO 0.02 h 13 W/m 4.0 C 5.5 C 2.0 km/h (1 Bft)
18.04.2009 07:00 5.8 C 92 % 1012.0 hPa 0.0 l/m 0.6 km/h (0 Bft) SO 0.05 h 67 W/m 4.7 C 5.8 C 1.4 km/h (1 Bft)
18.04.2009 08:00 8.1 C 92 % 1012.2 hPa 0.0 l/m 0.4 km/h (0 Bft) SO 0.70 h 211 W/m 6.9 C 8.1 C 1.4 km/h (1 Bft)
18.04.2009 09:00 11.7 C 72 % 1012.2 hPa 0.0 l/m 5.2 km/h (1 Bft) W-SW 0.85 h 351 W/m 6.8 C 11.7 C 8.8 km/h (2 Bft)
18.04.2009 10:00 12.5 C 64 % 1012.5 hPa 0.0 l/m 7.7 km/h (2 Bft) W 0.58 h 395 W/m 5.9 C 12.5 C 12.4 km/h (3 Bft)
18.04.2009 11:00 13.3 C 62 % 1012.4 hPa 0.0 l/m 10.5 km/h (2 Bft) W 0.65 h 528 W/m 6.1 C 13.3 C 15.6 km/h (3 Bft)
18.04.2009 12:00 14.4 C 56 % 1012.2 hPa 0.0 l/m 10.6 km/h (2 Bft) W 0.58 h 615 W/m 5.7 C 14.4 C 17.0 km/h (3 Bft)
18.04.2009 13:00 15.9 C 52 % 1011.9 hPa 0.0 l/m 8.1 km/h (2 Bft) W-NW 0.47 h 612 W/m 6.0 C 15.9 C 13.0 km/h (3 Bft)
18.04.2009 14:00 14.1 C 59 % 1011.9 hPa 0.0 l/m 6.0 km/h (2 Bft) S-SO 0.03 h 254 W/m 6.3 C 14.1 C 10.9 km/h (2 Bft)
18.04.2009 15:00 14.1 C 57 % 1012.1 hPa 0.0 l/m 3.8 km/h (1 Bft) O-SO 0.00 h 129 W/m 5.7 C 14.1 C 6.6 km/h (2 Bft)
18.04.2009 16:00 14.2 C 63 % 1012.0 hPa 0.0 l/m 6.2 km/h (2 Bft) SO 0.73 h 519 W/m 7.2 C 14.2 C 10.1 km/h (2 Bft)
18.04.2009 17:00 15.6 C 50 % 1011.8 hPa 0.0 l/m 6.5 km/h (2 Bft) W-SW 0.33 h 281 W/m 5.0 C 15.6 C 10.4 km/h (2 Bft)
18.04.2009 18:00 13.4 C 58 % 1012.4 hPa 0.0 l/m 12.6 km/h (3 Bft) W 0.00 h 77 W/m 5.2 C 13.4 C 19.7 km/h (3 Bft)
18.04.2009 19:00 11.8 C 73 % 1013.2 hPa 0.0 l/m 2.8 km/h (1 Bft) N 0.17 h 34 W/m 7.2 C 11.8 C 5.5 km/h (1 Bft)
18.04.2009 20:00 10.9 C 76 % 1013.5 hPa 0.0 l/m 0.9 km/h (0 Bft) N 0.00 h 9 W/m 6.8 C 10.9 C 2.1 km/h (1 Bft)
18.04.2009 21:00 9.5 C 79 % 1014.2 hPa 0.0 l/m 1.8 km/h (1 Bft) O-SO 0.00 h 0 W/m 6.0 C 9.4 C 3.3 km/h (1 Bft)
18.04.2009 22:00 8.3 C 83 % 1014.8 hPa 0.0 l/m 1.3 km/h (1 Bft) O-SO 0.00 h 0 W/m 5.6 C 8.3 C 2.5 km/h (1 Bft)
18.04.2009 23:00 7.1 C 87 % 1015.3 hPa 0.0 l/m 0.5 km/h (0 Bft) O-SO 0.00 h 0 W/m 5.0 C 7.1 C 1.2 km/h (1 Bft)
19.04.2009 00:00 6.4 C 89 % 1015.4 hPa 0.0 l/m 0.5 km/h (0 Bft) O-SO 0.00 h 0 W/m 4.7 C 6.4 C 1.1 km/h (1 Bft)
19.04.2009 01:00 5.6 C 91 % 1015.6 hPa 0.0 l/m 0.3 km/h (0 Bft) O-SO 0.00 h 0 W/m 4.2 C 5.6 C 0.7 km/h (0 Bft)
19.04.2009 02:00 4.9 C 92 % 1015.5 hPa 0.0 l/m 0.7 km/h (0 Bft) O-SO 0.00 h 0 W/m 3.8 C 4.9 C 1.3 km/h (1 Bft)
19.04.2009 03:00 4.6 C 94 % 1015.5 hPa 0.0 l/m 0.6 km/h (0 Bft) O-SO 0.00 h 0 W/m 3.7 C 4.6 C 1.1 km/h (1 Bft)
19.04.2009 04:00 4.0 C 94 % 1015.6 hPa 0.0 l/m 1.2 km/h (1 Bft) O-SO 0.00 h 0 W/m 3.2 C 4.0 C 2.0 km/h (1 Bft)
19.04.2009 05:00 3.7 C 95 % 1015.6 hPa 0.0 l/m 0.7 km/h (0 Bft) O-SO 0.00 h 0 W/m 3.0 C 3.7 C 1.7 km/h (1 Bft)
19.04.2009 06:00 3.4 C 96 % 1015.9 hPa 0.0 l/m 0.2 km/h (0 Bft) O-SO 0.03 h 13 W/m 2.8 C 3.4 C 0.4 km/h (0 Bft)
19.04.2009 07:00 3.4 C 97 % 1016.6 hPa 0.2 l/m 0.7 km/h (0 Bft) O-SO 0.00 h 51 W/m 2.9 C 3.4 C 1.6 km/h (1 Bft)
19.04.2009 08:00 5.0 C 97 % 1017.0 hPa 0.0 l/m 1.2 km/h (1 Bft) O-SO 0.00 h 119 W/m 4.6 C 5.0 C 2.7 km/h (1 Bft)
19.04.2009 09:00 7.3 C 97 % 1016.9 hPa 0.0 l/m 0.5 km/h (0 Bft) N 0.43 h 273 W/m 6.9 C 7.3 C 1.8 km/h (1 Bft)
19.04.2009 10:00 11.4 C 81 % 1016.8 hPa 0.0 l/m 3.3 km/h (1 Bft) O-SO 1.00 h 549 W/m 8.2 C 11.4 C 6.2 km/h (2 Bft)
19.04.2009 11:00 13.5 C 69 % 1016.6 hPa 0.0 l/m 2.8 km/h (1 Bft) O-SO 0.88 h 519 W/m 8.0 C 13.5 C 5.6 km/h (1 Bft)
19.04.2009 12:00 15.5 C 63 % 1016.4 hPa 0.0 l/m 2.6 km/h (1 Bft) S-SO 0.92 h 668 W/m 8.4 C 15.5 C 5.3 km/h (1 Bft)
19.04.2009 13:00 16.1 C 60 % 1016.3 hPa 0.0 l/m 5.3 km/h (1 Bft) SO 0.85 h 700 W/m 8.3 C 16.1 C 8.8 km/h (2 Bft)
19.04.2009 14:00 17.3 C 56 % 1015.8 hPa 0.0 l/m 5.5 km/h (1 Bft) O-SO 0.87 h 705 W/m 8.4 C 17.3 C 9.7 km/h (2 Bft)
19.04.2009 15:00 18.5 C 49 % 1015.7 hPa 0.0 l/m 7.6 km/h (2 Bft) O-SO 1.00 h 690 W/m 7.7 C 18.5 C 12.5 km/h (3 Bft)
19.04.2009 16:00 19.1 C 47 % 1015.7 hPa 0.0 l/m 4.4 km/h (1 Bft) O-SO 0.83 h 479 W/m 7.5 C 19.1 C 8.5 km/h (2 Bft)
19.04.2009 17:00 19.5 C 46 % 1015.6 hPa 0.0 l/m 3.3 km/h (1 Bft) O 0.73 h 348 W/m 7.4 C 19.5 C 6.8 km/h (2 Bft)
19.04.2009 18:00 18.7 C 45 % 1015.8 hPa 0.0 l/m 1.8 km/h (1 Bft) O 0.03 h 123 W/m 6.7 C 18.7 C 4.2 km/h (1 Bft)
19.04.2009 19:00 18.1 C 50 % 1016.1 hPa 0.0 l/m 1.8 km/h (1 Bft) N-NW 0.00 h 40 W/m 7.4 C 18.1 C 4.0 km/h (1 Bft)
19.04.2009 20:00 16.6 C 61 % 1016.4 hPa 0.0 l/m 2.3 km/h (1 Bft) N 0.00 h 5 W/m 9.1 C 16.6 C 4.3 km/h (1 Bft)
19.04.2009 21:00 15.3 C 67 % 1016.8 hPa 0.0 l/m 0.5 km/h (0 Bft) N-NW 0.00 h 0 W/m 9.2 C 15.3 C 1.8 km/h (1 Bft)
19.04.2009 22:00 14.1 C 71 % 1016.8 hPa 0.0 l/m 1.1 km/h (1 Bft) SW 0.00 h 0 W/m 9.0 C 14.1 C 2.9 km/h (1 Bft)
19.04.2009 23:00 13.4 C 73 % 1016.9 hPa 0.0 l/m 1.7 km/h (1 Bft) S-SO 0.00 h 0 W/m 8.6 C 13.4 C 3.7 km/h (1 Bft)
Min-Datum _ 19.04.09 15.04.09 16.04.09 - 13.04.09 - - - 15.04.09 19.04.09 13.04.09
_ Min-Zeit 07:07 16:23 13:30 - 00:01 - - - 16:23 07:07 00:18
Minimum _ 3.1 C 24 % 1004.0 hPa - 0.0 km/h (0 Bft) - - - 1.5 C 3.1 C 0.0 km/h (0 Bft)
Max-Datum _ 13.04.09 19.04.09 19.04.09 16.04.09 16.04.09 - 13.04.09 18.04.09 14.04.09 13.04.09 16.04.09
_ Max-Zeit 15:29 08:27 08:30 16:03 15:26 - 08:05 13:25 12:01 15:29 15:26
Maximum _ 23.7 C 98 % 1017.1 hPa 1.2 l/m 38.2 km/h
W (5 Bft)
- 0.02 h 1097 W/m 12.4 C 23.7 C 66.0 km/h
W (8 Bft)
Durchschnitt _ 12.4 C 71 % 1009.2 hPa #3.6 l/m 3.0 km/h (1 Bft) O-SO #48:49 h 313 W/m 6.4 C 12.4 C 5.3 km/h (1 Bft)
© Kaiko 2009